sensor_id;sensor_type;location;lat;lon;timestamp;P1;durP1;ratioP1;P2;durP2;ratioP2
27424;SDS011;15244;49.088;11.886;2023-08-21T00:04:55;4.18;;;3.88;;
27424;SDS011;15244;49.088;11.886;2023-08-21T00:09:59;4.07;;;3.88;;
27424;SDS011;15244;49.088;11.886;2023-08-21T00:15:01;4.70;;;4.30;;
27424;SDS011;15244;49.088;11.886;2023-08-21T00:20:04;3.80;;;3.60;;
27424;SDS011;15244;49.088;11.886;2023-08-21T00:25:07;4.05;;;3.75;;
27424;SDS011;15244;49.088;11.886;2023-08-21T00:30:09;4.68;;;4.28;;
27424;SDS011;15244;49.088;11.886;2023-08-21T00:35:11;4.15;;;3.85;;
27424;SDS011;15244;49.088;11.886;2023-08-21T00:40:13;6.00;;;4.22;;
27424;SDS011;15244;49.088;11.886;2023-08-21T00:45:15;5.32;;;3.65;;
27424;SDS011;15244;49.088;11.886;2023-08-21T00:50:17;4.68;;;4.15;;
27424;SDS011;15244;49.088;11.886;2023-08-21T00:55:19;3.92;;;3.72;;
27424;SDS011;15244;49.088;11.886;2023-08-21T01:00:21;5.28;;;4.88;;
27424;SDS011;15244;49.088;11.886;2023-08-21T01:05:25;5.07;;;4.60;;
27424;SDS011;15244;49.088;11.886;2023-08-21T01:10:32;5.35;;;4.82;;
27424;SDS011;15244;49.088;11.886;2023-08-21T01:15:41;4.90;;;4.60;;
27424;SDS011;15244;49.088;11.886;2023-08-21T01:20:46;5.00;;;4.60;;
27424;SDS011;15244;49.088;11.886;2023-08-21T01:25:49;5.53;;;5.13;;
27424;SDS011;15244;49.088;11.886;2023-08-21T01:30:51;5.13;;;4.72;;
27424;SDS011;15244;49.088;11.886;2023-08-21T01:35:58;5.00;;;4.70;;
27424;SDS011;15244;49.088;11.886;2023-08-21T01:41:02;5.28;;;4.82;;
27424;SDS011;15244;49.088;11.886;2023-08-21T01:46:04;6.15;;;5.28;;
27424;SDS011;15244;49.088;11.886;2023-08-21T01:51:06;4.20;;;4.00;;
27424;SDS011;15244;49.088;11.886;2023-08-21T01:56:09;4.55;;;4.25;;
27424;SDS011;15244;49.088;11.886;2023-08-21T02:01:11;4.50;;;4.20;;
27424;SDS011;15244;49.088;11.886;2023-08-21T02:06:12;10.38;;;4.47;;
27424;SDS011;15244;49.088;11.886;2023-08-21T02:11:14;4.97;;;4.57;;
27424;SDS011;15244;49.088;11.886;2023-08-21T02:16:16;4.50;;;4.20;;
27424;SDS011;15244;49.088;11.886;2023-08-21T02:21:18;5.30;;;4.90;;
27424;SDS011;15244;49.088;11.886;2023-08-21T02:26:19;4.65;;;4.28;;
27424;SDS011;15244;49.088;11.886;2023-08-21T02:31:21;4.85;;;4.55;;
27424;SDS011;15244;49.088;11.886;2023-08-21T02:36:24;5.15;;;4.70;;
27424;SDS011;15244;49.088;11.886;2023-08-21T02:41:26;4.95;;;4.45;;
27424;SDS011;15244;49.088;11.886;2023-08-21T02:46:27;4.88;;;4.47;;
27424;SDS011;15244;49.088;11.886;2023-08-21T02:51:30;4.70;;;4.40;;
27424;SDS011;15244;49.088;11.886;2023-08-21T02:56:32;3.97;;;3.78;;
27424;SDS011;15244;49.088;11.886;2023-08-21T03:01:34;4.10;;;3.88;;
27424;SDS011;15244;49.088;11.886;2023-08-21T03:06:36;4.10;;;3.90;;
27424;SDS011;15244;49.088;11.886;2023-08-21T03:11:38;4.65;;;4.32;;
27424;SDS011;15244;49.088;11.886;2023-08-21T03:16:40;5.03;;;4.53;;
27424;SDS011;15244;49.088;11.886;2023-08-21T03:21:42;4.70;;;4.30;;
27424;SDS011;15244;49.088;11.886;2023-08-21T03:26:44;4.95;;;4.60;;
27424;SDS011;15244;49.088;11.886;2023-08-21T03:31:50;4.88;;;4.55;;
27424;SDS011;15244;49.088;11.886;2023-08-21T03:36:53;5.22;;;4.82;;
27424;SDS011;15244;49.088;11.886;2023-08-21T03:41:55;4.80;;;4.47;;
27424;SDS011;15244;49.088;11.886;2023-08-21T03:46:58;4.82;;;4.63;;
27424;SDS011;15244;49.088;11.886;2023-08-21T03:51:59;5.32;;;4.93;;
27424;SDS011;15244;49.088;11.886;2023-08-21T03:57:01;5.72;;;5.35;;
27424;SDS011;15244;49.088;11.886;2023-08-21T04:02:03;5.68;;;5.28;;
27424;SDS011;15244;49.088;11.886;2023-08-21T04:07:05;5.50;;;5.20;;
27424;SDS011;15244;49.088;11.886;2023-08-21T04:12:07;5.15;;;4.75;;
27424;SDS011;15244;49.088;11.886;2023-08-21T04:17:09;5.43;;;5.13;;
27424;SDS011;15244;49.088;11.886;2023-08-21T04:22:11;5.43;;;5.03;;
27424;SDS011;15244;49.088;11.886;2023-08-21T04:27:13;7.82;;;5.53;;
27424;SDS011;15244;49.088;11.886;2023-08-21T04:32:15;5.72;;;5.38;;
27424;SDS011;15244;49.088;11.886;2023-08-21T04:37:18;6.15;;;5.65;;
27424;SDS011;15244;49.088;11.886;2023-08-21T04:42:22;6.40;;;5.88;;
27424;SDS011;15244;49.088;11.886;2023-08-21T04:47:25;10.13;;;6.43;;
27424;SDS011;15244;49.088;11.886;2023-08-21T04:52:31;6.80;;;6.20;;
27424;SDS011;15244;49.088;11.886;2023-08-21T04:57:33;7.30;;;6.57;;
27424;SDS011;15244;49.088;11.886;2023-08-21T05:02:39;7.70;;;7.10;;
27424;SDS011;15244;49.088;11.886;2023-08-21T05:07:41;7.40;;;6.47;;
27424;SDS011;15244;49.088;11.886;2023-08-21T05:12:44;6.88;;;6.35;;
27424;SDS011;15244;49.088;11.886;2023-08-21T05:17:47;6.57;;;5.97;;
27424;SDS011;15244;49.088;11.886;2023-08-21T05:22:49;6.22;;;5.82;;
27424;SDS011;15244;49.088;11.886;2023-08-21T05:27:52;5.65;;;5.25;;
27424;SDS011;15244;49.088;11.886;2023-08-21T05:32:54;5.90;;;5.43;;
27424;SDS011;15244;49.088;11.886;2023-08-21T05:37:56;6.68;;;6.13;;
27424;SDS011;15244;49.088;11.886;2023-08-21T05:42:58;6.20;;;5.80;;
27424;SDS011;15244;49.088;11.886;2023-08-21T05:48:01;6.15;;;5.78;;
27424;SDS011;15244;49.088;11.886;2023-08-21T05:53:03;5.65;;;5.32;;
27424;SDS011;15244;49.088;11.886;2023-08-21T05:58:06;5.82;;;5.18;;
27424;SDS011;15244;49.088;11.886;2023-08-21T06:03:07;6.15;;;5.65;;
27424;SDS011;15244;49.088;11.886;2023-08-21T06:08:28;6.35;;;5.80;;
27424;SDS011;15244;49.088;11.886;2023-08-21T06:13:30;5.95;;;5.47;;
27424;SDS011;15244;49.088;11.886;2023-08-21T06:18:32;6.13;;;5.72;;
27424;SDS011;15244;49.088;11.886;2023-08-21T06:23:35;6.47;;;6.00;;
27424;SDS011;15244;49.088;11.886;2023-08-21T06:28:37;6.13;;;5.55;;
27424;SDS011;15244;49.088;11.886;2023-08-21T06:33:38;6.43;;;5.93;;
27424;SDS011;15244;49.088;11.886;2023-08-21T06:38:40;6.47;;;5.97;;
27424;SDS011;15244;49.088;11.886;2023-08-21T06:43:42;6.10;;;5.70;;
27424;SDS011;15244;49.088;11.886;2023-08-21T06:48:48;6.28;;;5.78;;
27424;SDS011;15244;49.088;11.886;2023-08-21T06:53:51;6.45;;;6.05;;
27424;SDS011;15244;49.088;11.886;2023-08-21T06:58:53;6.45;;;6.05;;
27424;SDS011;15244;49.088;11.886;2023-08-21T07:03:56;6.45;;;6.05;;
27424;SDS011;15244;49.088;11.886;2023-08-21T07:08:58;7.10;;;6.47;;
27424;SDS011;15244;49.088;11.886;2023-08-21T07:13:59;6.50;;;6.10;;
27424;SDS011;15244;49.088;11.886;2023-08-21T07:19:01;6.13;;;5.68;;
27424;SDS011;15244;49.088;11.886;2023-08-21T07:24:04;6.20;;;5.60;;
27424;SDS011;15244;49.088;11.886;2023-08-21T07:29:07;6.57;;;6.03;;
27424;SDS011;15244;49.088;11.886;2023-08-21T07:34:09;6.30;;;5.88;;
27424;SDS011;15244;49.088;11.886;2023-08-21T07:39:11;6.10;;;5.65;;
27424;SDS011;15244;49.088;11.886;2023-08-21T07:44:12;6.03;;;5.53;;
27424;SDS011;15244;49.088;11.886;2023-08-21T07:49:14;5.78;;;5.38;;
27424;SDS011;15244;49.088;11.886;2023-08-21T07:54:16;5.20;;;4.90;;
27424;SDS011;15244;49.088;11.886;2023-08-21T07:59:17;6.32;;;5.78;;
27424;SDS011;15244;49.088;11.886;2023-08-21T08:04:21;5.85;;;5.45;;
27424;SDS011;15244;49.088;11.886;2023-08-21T08:09:22;5.95;;;5.65;;
27424;SDS011;15244;49.088;11.886;2023-08-21T08:14:24;6.35;;;5.85;;
27424;SDS011;15244;49.088;11.886;2023-08-21T08:19:27;6.63;;;6.15;;
27424;SDS011;15244;49.088;11.886;2023-08-21T08:24:29;5.95;;;5.60;;
27424;SDS011;15244;49.088;11.886;2023-08-21T08:29:31;6.30;;;5.80;;
27424;SDS011;15244;49.088;11.886;2023-08-21T08:34:32;6.00;;;5.60;;
27424;SDS011;15244;49.088;11.886;2023-08-21T08:39:34;6.28;;;5.97;;
27424;SDS011;15244;49.088;11.886;2023-08-21T08:44:36;6.15;;;5.65;;
27424;SDS011;15244;49.088;11.886;2023-08-21T08:49:42;5.80;;;5.50;;
27424;SDS011;15244;49.088;11.886;2023-08-21T08:54:44;7.30;;;5.47;;
27424;SDS011;15244;49.088;11.886;2023-08-21T08:59:46;7.03;;;6.40;;
27424;SDS011;15244;49.088;11.886;2023-08-21T09:04:48;6.45;;;5.95;;
27424;SDS011;15244;49.088;11.886;2023-08-21T09:09:50;6.05;;;5.72;;
27424;SDS011;15244;49.088;11.886;2023-08-21T09:14:53;6.82;;;6.43;;
27424;SDS011;15244;49.088;11.886;2023-08-21T09:19:55;5.40;;;5.03;;
27424;SDS011;15244;49.088;11.886;2023-08-21T09:25:06;5.75;;;5.45;;
27424;SDS011;15244;49.088;11.886;2023-08-21T09:30:09;6.22;;;5.72;;
27424;SDS011;15244;49.088;11.886;2023-08-21T09:35:15;5.50;;;5.20;;
27424;SDS011;15244;49.088;11.886;2023-08-21T09:40:18;5.32;;;4.93;;
27424;SDS011;15244;49.088;11.886;2023-08-21T09:45:21;5.28;;;4.78;;
27424;SDS011;15244;49.088;11.886;2023-08-21T09:50:26;4.90;;;4.60;;
27424;SDS011;15244;49.088;11.886;2023-08-21T09:55:31;4.68;;;4.47;;
27424;SDS011;15244;49.088;11.886;2023-08-21T10:00:35;4.32;;;4.13;;
27424;SDS011;15244;49.088;11.886;2023-08-21T10:05:39;4.70;;;4.40;;
27424;SDS011;15244;49.088;11.886;2023-08-21T10:10:41;5.53;;;5.13;;
27424;SDS011;15244;49.088;11.886;2023-08-21T10:15:43;5.50;;;4.78;;
27424;SDS011;15244;49.088;11.886;2023-08-21T10:20:49;4.77;;;4.47;;
27424;SDS011;15244;49.088;11.886;2023-08-21T10:25:56;5.40;;;5.00;;
27424;SDS011;15244;49.088;11.886;2023-08-21T10:41:58;5.15;;;4.90;;
27424;SDS011;15244;49.088;11.886;2023-08-21T10:47:19;4.93;;;4.63;;
27424;SDS011;15244;49.088;11.886;2023-08-21T10:52:26;4.32;;;4.13;;
27424;SDS011;15244;49.088;11.886;2023-08-21T10:57:32;4.72;;;4.43;;
27424;SDS011;15244;49.088;11.886;2023-08-21T11:02:35;4.20;;;3.90;;
27424;SDS011;15244;49.088;11.886;2023-08-21T11:07:40;3.97;;;3.67;;
27424;SDS011;15244;49.088;11.886;2023-08-21T11:12:55;4.25;;;3.85;;
27424;SDS011;15244;49.088;11.886;2023-08-21T11:17:59;4.78;;;4.28;;
27424;SDS011;15244;49.088;11.886;2023-08-21T11:23:03;4.20;;;4.00;;
27424;SDS011;15244;49.088;11.886;2023-08-21T11:28:09;4.80;;;4.50;;
27424;SDS011;15244;49.088;11.886;2023-08-21T11:33:12;4.18;;;3.97;;
27424;SDS011;15244;49.088;11.886;2023-08-21T11:38:16;4.30;;;3.90;;
27424;SDS011;15244;49.088;11.886;2023-08-21T11:43:20;4.32;;;4.07;;
27424;SDS011;15244;49.088;11.886;2023-08-21T11:48:22;4.55;;;4.22;;
27424;SDS011;15244;49.088;11.886;2023-08-21T11:53:30;10.70;;;4.57;;
27424;SDS011;15244;49.088;11.886;2023-08-21T11:58:40;4.25;;;3.90;;
27424;SDS011;15244;49.088;11.886;2023-08-21T12:03:43;4.22;;;3.92;;
27424;SDS011;15244;49.088;11.886;2023-08-21T12:08:45;4.57;;;4.38;;
27424;SDS011;15244;49.088;11.886;2023-08-21T12:13:47;4.35;;;3.95;;
27424;SDS011;15244;49.088;11.886;2023-08-21T12:18:48;4.90;;;4.60;;
27424;SDS011;15244;49.088;11.886;2023-08-21T12:23:50;4.53;;;4.20;;
27424;SDS011;15244;49.088;11.886;2023-08-21T12:28:52;4.25;;;3.95;;
27424;SDS011;15244;49.088;11.886;2023-08-21T12:33:53;4.18;;;3.92;;
27424;SDS011;15244;49.088;11.886;2023-08-21T12:38:55;4.18;;;3.60;;
27424;SDS011;15244;49.088;11.886;2023-08-21T12:43:56;4.32;;;3.92;;
27424;SDS011;15244;49.088;11.886;2023-08-21T12:48:58;4.13;;;3.83;;
27424;SDS011;15244;49.088;11.886;2023-08-21T12:54:02;4.00;;;3.70;;
27424;SDS011;15244;49.088;11.886;2023-08-21T12:59:05;6.35;;;3.92;;
27424;SDS011;15244;49.088;11.886;2023-08-21T13:04:07;4.35;;;3.88;;
27424;SDS011;15244;49.088;11.886;2023-08-21T13:09:08;3.58;;;3.38;;
27424;SDS011;15244;49.088;11.886;2023-08-21T13:14:10;3.92;;;3.70;;
27424;SDS011;15244;49.088;11.886;2023-08-21T13:19:12;4.60;;;3.30;;
27424;SDS011;15244;49.088;11.886;2023-08-21T13:24:14;3.72;;;3.42;;
27424;SDS011;15244;49.088;11.886;2023-08-21T13:29:16;3.70;;;3.50;;
27424;SDS011;15244;49.088;11.886;2023-08-21T13:34:18;4.20;;;3.90;;
27424;SDS011;15244;49.088;11.886;2023-08-21T13:39:19;4.72;;;3.70;;
27424;SDS011;15244;49.088;11.886;2023-08-21T13:44:21;4.15;;;3.85;;
27424;SDS011;15244;49.088;11.886;2023-08-21T13:49:23;4.68;;;3.90;;
27424;SDS011;15244;49.088;11.886;2023-08-21T13:54:25;3.70;;;3.40;;
27424;SDS011;15244;49.088;11.886;2023-08-21T13:59:27;3.63;;;3.33;;
27424;SDS011;15244;49.088;11.886;2023-08-21T14:04:29;3.45;;;3.25;;
27424;SDS011;15244;49.088;11.886;2023-08-21T14:09:33;7.63;;;3.85;;
27424;SDS011;15244;49.088;11.886;2023-08-21T14:14:37;4.15;;;3.15;;
27424;SDS011;15244;49.088;11.886;2023-08-21T14:19:39;3.65;;;3.35;;
27424;SDS011;15244;49.088;11.886;2023-08-21T14:24:40;3.92;;;3.50;;
27424;SDS011;15244;49.088;11.886;2023-08-21T14:29:42;3.40;;;3.20;;
27424;SDS011;15244;49.088;11.886;2023-08-21T14:34:45;3.70;;;3.35;;
27424;SDS011;15244;49.088;11.886;2023-08-21T14:39:48;4.63;;;3.25;;
27424;SDS011;15244;49.088;11.886;2023-08-21T14:44:50;5.00;;;3.92;;
27424;SDS011;15244;49.088;11.886;2023-08-21T14:49:52;4.00;;;3.45;;
27424;SDS011;15244;49.088;11.886;2023-08-21T14:54:54;5.00;;;4.53;;
27424;SDS011;15244;49.088;11.886;2023-08-21T14:59:55;4.35;;;3.58;;
27424;SDS011;15244;49.088;11.886;2023-08-21T15:04:57;4.75;;;4.32;;
27424;SDS011;15244;49.088;11.886;2023-08-21T15:09:59;3.50;;;3.30;;
27424;SDS011;15244;49.088;11.886;2023-08-21T15:15:00;5.70;;;3.97;;
27424;SDS011;15244;49.088;11.886;2023-08-21T15:20:02;4.50;;;3.70;;
27424;SDS011;15244;49.088;11.886;2023-08-21T15:25:08;9.05;;;4.03;;
27424;SDS011;15244;49.088;11.886;2023-08-21T15:30:10;3.92;;;3.63;;
27424;SDS011;15244;49.088;11.886;2023-08-21T15:35:13;4.85;;;3.70;;
27424;SDS011;15244;49.088;11.886;2023-08-21T15:40:16;4.05;;;3.60;;
27424;SDS011;15244;49.088;11.886;2023-08-21T15:45:17;4.95;;;3.75;;
27424;SDS011;15244;49.088;11.886;2023-08-21T15:50:19;3.35;;;3.13;;
27424;SDS011;15244;49.088;11.886;2023-08-21T15:55:21;4.03;;;3.58;;
27424;SDS011;15244;49.088;11.886;2023-08-21T16:00:24;6.20;;;3.97;;
27424;SDS011;15244;49.088;11.886;2023-08-21T16:05:26;5.18;;;3.15;;
27424;SDS011;15244;49.088;11.886;2023-08-21T16:10:27;3.70;;;3.47;;
27424;SDS011;15244;49.088;11.886;2023-08-21T16:15:29;4.07;;;3.60;;
27424;SDS011;15244;49.088;11.886;2023-08-21T16:20:31;3.78;;;3.45;;
27424;SDS011;15244;49.088;11.886;2023-08-21T16:25:33;3.88;;;3.65;;
27424;SDS011;15244;49.088;11.886;2023-08-21T16:30:35;4.13;;;3.78;;
27424;SDS011;15244;49.088;11.886;2023-08-21T16:35:37;5.82;;;3.97;;
27424;SDS011;15244;49.088;11.886;2023-08-21T16:40:39;4.25;;;3.85;;
27424;SDS011;15244;49.088;11.886;2023-08-21T16:45:41;5.07;;;4.20;;
27424;SDS011;15244;49.088;11.886;2023-08-21T16:50:43;3.97;;;3.63;;
27424;SDS011;15244;49.088;11.886;2023-08-21T16:55:45;3.97;;;3.58;;
27424;SDS011;15244;49.088;11.886;2023-08-21T17:00:48;4.30;;;4.00;;
27424;SDS011;15244;49.088;11.886;2023-08-21T17:05:49;4.30;;;3.95;;
27424;SDS011;15244;49.088;11.886;2023-08-21T17:10:52;4.60;;;3.42;;
27424;SDS011;15244;49.088;11.886;2023-08-21T17:15:54;5.25;;;3.83;;
27424;SDS011;15244;49.088;11.886;2023-08-21T17:20:57;4.00;;;3.70;;
27424;SDS011;15244;49.088;11.886;2023-08-21T17:25:59;4.95;;;3.60;;
27424;SDS011;15244;49.088;11.886;2023-08-21T17:31:01;8.20;;;4.07;;
27424;SDS011;15244;49.088;11.886;2023-08-21T17:36:03;4.38;;;3.97;;
27424;SDS011;15244;49.088;11.886;2023-08-21T17:41:04;4.35;;;4.05;;
27424;SDS011;15244;49.088;11.886;2023-08-21T17:46:09;5.97;;;4.43;;
27424;SDS011;15244;49.088;11.886;2023-08-21T17:51:11;4.07;;;3.78;;
27424;SDS011;15244;49.088;11.886;2023-08-21T17:56:15;5.05;;;4.30;;
27424;SDS011;15244;49.088;11.886;2023-08-21T18:01:17;4.57;;;4.22;;
27424;SDS011;15244;49.088;11.886;2023-08-21T18:06:18;5.28;;;4.45;;
27424;SDS011;15244;49.088;11.886;2023-08-21T18:11:23;6.32;;;3.70;;
27424;SDS011;15244;49.088;11.886;2023-08-21T18:16:25;4.22;;;3.92;;
27424;SDS011;15244;49.088;11.886;2023-08-21T18:21:27;4.38;;;4.07;;
27424;SDS011;15244;49.088;11.886;2023-08-21T18:26:28;4.55;;;4.15;;
27424;SDS011;15244;49.088;11.886;2023-08-21T18:31:30;5.57;;;4.25;;
27424;SDS011;15244;49.088;11.886;2023-08-21T18:36:32;7.68;;;5.03;;
27424;SDS011;15244;49.088;11.886;2023-08-21T18:41:35;4.90;;;4.15;;
27424;SDS011;15244;49.088;11.886;2023-08-21T18:46:36;8.65;;;4.10;;
27424;SDS011;15244;49.088;11.886;2023-08-21T18:51:38;6.68;;;3.95;;
27424;SDS011;15244;49.088;11.886;2023-08-21T18:56:40;4.63;;;4.13;;
27424;SDS011;15244;49.088;11.886;2023-08-21T19:01:41;10.23;;;4.22;;
27424;SDS011;15244;49.088;11.886;2023-08-21T19:06:43;4.93;;;4.20;;
27424;SDS011;15244;49.088;11.886;2023-08-21T19:12:04;5.57;;;4.30;;
27424;SDS011;15244;49.088;11.886;2023-08-21T19:17:06;4.40;;;4.10;;
27424;SDS011;15244;49.088;11.886;2023-08-21T19:22:07;5.25;;;4.57;;
27424;SDS011;15244;49.088;11.886;2023-08-21T19:27:09;5.85;;;4.50;;
27424;SDS011;15244;49.088;11.886;2023-08-21T19:32:12;4.85;;;4.45;;
27424;SDS011;15244;49.088;11.886;2023-08-21T19:37:13;4.78;;;4.20;;
27424;SDS011;15244;49.088;11.886;2023-08-21T19:42:15;5.45;;;3.90;;
27424;SDS011;15244;49.088;11.886;2023-08-21T19:47:17;4.95;;;4.30;;
27424;SDS011;15244;49.088;11.886;2023-08-21T19:52:18;4.88;;;4.40;;
27424;SDS011;15244;49.088;11.886;2023-08-21T19:57:20;5.07;;;4.50;;
27424;SDS011;15244;49.088;11.886;2023-08-21T20:02:22;5.00;;;4.60;;
27424;SDS011;15244;49.088;11.886;2023-08-21T20:07:24;4.97;;;4.60;;
27424;SDS011;15244;49.088;11.886;2023-08-21T20:12:27;4.55;;;3.95;;
27424;SDS011;15244;49.088;11.886;2023-08-21T20:17:28;4.55;;;4.18;;
27424;SDS011;15244;49.088;11.886;2023-08-21T20:22:30;6.70;;;4.68;;
27424;SDS011;15244;49.088;11.886;2023-08-21T20:27:32;4.03;;;3.83;;
27424;SDS011;15244;49.088;11.886;2023-08-21T20:32:38;4.07;;;3.80;;
27424;SDS011;15244;49.088;11.886;2023-08-21T20:37:39;4.20;;;3.90;;
27424;SDS011;15244;49.088;11.886;2023-08-21T20:42:43;4.43;;;4.03;;
27424;SDS011;15244;49.088;11.886;2023-08-21T20:47:45;7.18;;;4.00;;
27424;SDS011;15244;49.088;11.886;2023-08-21T20:52:47;4.53;;;4.15;;
27424;SDS011;15244;49.088;11.886;2023-08-21T20:57:50;4.50;;;4.07;;
27424;SDS011;15244;49.088;11.886;2023-08-21T21:02:52;4.43;;;4.03;;
27424;SDS011;15244;49.088;11.886;2023-08-21T21:07:54;5.32;;;4.43;;
27424;SDS011;15244;49.088;11.886;2023-08-21T21:12:56;5.30;;;4.80;;
27424;SDS011;15244;49.088;11.886;2023-08-21T21:17:57;6.07;;;5.60;;
27424;SDS011;15244;49.088;11.886;2023-08-21T21:22:59;5.75;;;5.30;;
27424;SDS011;15244;49.088;11.886;2023-08-21T21:28:01;4.95;;;4.65;;
27424;SDS011;15244;49.088;11.886;2023-08-21T21:33:03;5.60;;;5.10;;
27424;SDS011;15244;49.088;11.886;2023-08-21T21:38:05;5.13;;;4.63;;
27424;SDS011;15244;49.088;11.886;2023-08-21T21:43:06;4.47;;;4.18;;
27424;SDS011;15244;49.088;11.886;2023-08-21T21:48:08;3.92;;;3.72;;
27424;SDS011;15244;49.088;11.886;2023-08-21T21:53:09;4.47;;;3.97;;
27424;SDS011;15244;49.088;11.886;2023-08-21T21:58:12;4.72;;;4.40;;
27424;SDS011;15244;49.088;11.886;2023-08-21T22:03:14;4.70;;;4.35;;
27424;SDS011;15244;49.088;11.886;2023-08-21T22:08:15;4.35;;;4.05;;
27424;SDS011;15244;49.088;11.886;2023-08-21T22:13:17;5.22;;;4.00;;
27424;SDS011;15244;49.088;11.886;2023-08-21T22:18:19;6.90;;;4.38;;
27424;SDS011;15244;49.088;11.886;2023-08-21T22:23:21;6.50;;;4.15;;
27424;SDS011;15244;49.088;11.886;2023-08-21T22:28:22;4.75;;;4.32;;
27424;SDS011;15244;49.088;11.886;2023-08-21T22:33:24;4.70;;;4.30;;
27424;SDS011;15244;49.088;11.886;2023-08-21T22:38:25;4.93;;;3.80;;
27424;SDS011;15244;49.088;11.886;2023-08-21T22:43:27;3.95;;;3.65;;
27424;SDS011;15244;49.088;11.886;2023-08-21T22:48:28;5.13;;;4.60;;
27424;SDS011;15244;49.088;11.886;2023-08-21T22:53:30;4.80;;;4.25;;
27424;SDS011;15244;49.088;11.886;2023-08-21T22:58:32;4.93;;;4.53;;
27424;SDS011;15244;49.088;11.886;2023-08-21T23:03:33;5.82;;;4.85;;
27424;SDS011;15244;49.088;11.886;2023-08-21T23:08:35;4.43;;;4.03;;
27424;SDS011;15244;49.088;11.886;2023-08-21T23:13:36;4.32;;;4.00;;
27424;SDS011;15244;49.088;11.886;2023-08-21T23:18:38;6.05;;;4.03;;
27424;SDS011;15244;49.088;11.886;2023-08-21T23:23:40;5.35;;;4.15;;
27424;SDS011;15244;49.088;11.886;2023-08-21T23:28:41;4.47;;;4.10;;
27424;SDS011;15244;49.088;11.886;2023-08-21T23:33:43;4.53;;;3.72;;
27424;SDS011;15244;49.088;11.886;2023-08-21T23:38:44;4.38;;;3.67;;
27424;SDS011;15244;49.088;11.886;2023-08-21T23:43:46;4.70;;;3.45;;
27424;SDS011;15244;49.088;11.886;2023-08-21T23:48:48;6.40;;;3.42;;
27424;SDS011;15244;49.088;11.886;2023-08-21T23:53:49;4.22;;;3.92;;
27424;SDS011;15244;49.088;11.886;2023-08-21T23:58:52;3.85;;;3.55;;
